Time,TemperatureF,DewpointF,PressureIn,WindDirection,WindDirectionDegrees,WindSpeedMPH,WindSpeedGustMPH,Humidity,HourlyPrecipIn,Conditions,Clouds,dailyrainin,SoftwareType,DateUTC
2014-01-19 00:00:00,46.4,33.7,30.20,NW,314,0.0,2.0,61,0.00,,SKC,0.00,VWS V15.00,2014-01-19 06:00:00,
2014-01-19 00:30:00,47.3,33.3,30.20,NNW,334,0.0,3.0,58,0.00,,SKC,0.00,VWS V15.00,2014-01-19 06:30:00,
2014-01-19 01:00:00,46.8,32.4,30.20,North,353,1.0,3.0,57,0.00,,SKC,0.00,VWS V15.00,2014-01-19 07:00:00,
2014-01-19 01:30:00,47.4,31.6,30.21,NNW,342,1.0,6.0,54,0.00,,SKC,0.00,VWS V15.00,2014-01-19 07:30:00,
2014-01-19 02:00:00,47.4,31.1,30.22,North,3,4.0,8.0,53,0.00,,SKC,0.00,VWS V15.00,2014-01-19 08:00:00,
2014-01-19 02:30:00,46.8,31.0,30.23,NNW,341,3.0,9.0,54,0.00,,SKC,0.00,VWS V15.00,2014-01-19 08:30:00,
2014-01-19 03:00:00,44.9,30.6,30.24,NW,314,2.0,7.0,57,0.00,,SKC,0.00,VWS V15.00,2014-01-19 09:00:00,
2014-01-19 03:30:00,44.0,29.8,30.24,North,4,1.0,4.0,57,0.00,,SKC,0.00,VWS V15.00,2014-01-19 09:30:00,
2014-01-19 04:00:00,42.9,29.2,30.25,NW,309,0.0,3.0,58,0.00,,SKC,0.00,VWS V15.00,2014-01-19 10:00:00,
2014-01-19 04:30:00,42.4,29.1,30.25,NNW,348,2.0,2.0,59,0.00,,SKC,0.00,VWS V15.00,2014-01-19 10:30:00,
2014-01-19 05:00:00,41.0,28.6,30.25,WNW,295,1.0,5.0,61,0.00,,SKC,0.00,VWS V15.00,2014-01-19 11:00:00,
2014-01-19 05:30:00,40.8,28.0,30.26,North,356,0.0,4.0,60,0.00,,SKC,0.00,VWS V15.00,2014-01-19 11:30:00,
2014-01-19 06:00:00,41.4,27.3,30.28,SE,132,0.0,2.0,57,0.00,,SKC,0.00,VWS V15.00,2014-01-19 12:00:00,
2014-01-19 06:30:00,41.9,26.5,30.28,NW,314,1.0,1.0,54,0.00,,SKC,0.00,VWS V15.00,2014-01-19 12:30:00,
2014-01-19 07:00:00,39.7,26.1,30.29,NNW,339,0.0,2.0,58,0.00,,SKC,0.00,VWS V15.00,2014-01-19 13:00:00,
2014-01-19 07:30:00,38.9,26.2,30.30,NW,323,0.0,1.0,60,0.00,,SKC,0.00,VWS V15.00,2014-01-19 13:30:00,
2014-01-19 08:00:00,40.8,26.3,30.31,WSW,248,0.0,2.0,56,0.00,,SKC,0.00,VWS V15.00,2014-01-19 14:00:00,
2014-01-19 08:30:00,44.5,28.0,30.32,West,271,0.0,2.0,52,0.00,,SKC,0.00,VWS V15.00,2014-01-19 14:30:00,
2014-01-19 09:00:00,48.3,29.5,30.33,SW,225,1.0,2.0,48,0.00,,SKC,0.00,VWS V15.00,2014-01-19 15:00:00,
2014-01-19 09:30:00,51.5,26.8,30.34,SSW,207,0.0,3.0,38,0.00,,SKC,0.00,VWS V15.00,2014-01-19 15:30:00,
2014-01-19 10:00:00,53.7,28.1,30.35,SSW,196,2.0,5.0,37,0.00,,SKC,0.00,VWS V15.00,2014-01-19 16:00:00,
2014-01-19 10:30:00,56.7,27.2,30.35,SW,218,5.0,6.0,32,0.00,,SKC,0.00,VWS V15.00,2014-01-19 16:30:00,
2014-01-19 11:00:00,58.2,27.7,30.33,SSE,162,5.0,7.0,31,0.00,,SKC,0.00,VWS V15.00,2014-01-19 17:00:00,
2014-01-19 11:30:00,59.1,27.7,30.33,SW,231,7.0,9.0,30,0.00,,SKC,0.00,VWS V15.00,2014-01-19 17:30:00,
2014-01-19 12:00:00,60.8,27.5,30.30,SW,219,7.0,8.0,28,0.00,,SKC,0.00,VWS V15.00,2014-01-19 18:00:00,
2014-01-19 12:30:00,63.0,30.3,30.27,SW,214,4.0,8.0,29,0.00,,SKC,0.00,VWS V15.00,2014-01-19 18:30:00,
2014-01-19 13:00:00,64.8,28.2,30.25,SE,143,5.0,9.0,25,0.00,,SKC,0.00,VWS V15.00,2014-01-19 19:00:00,
2014-01-19 13:30:00,66.2,24.0,30.22,South,184,3.0,8.0,20,0.00,,SKC,0.00,VWS V15.00,2014-01-19 19:30:00,
2014-01-19 14:00:00,67.5,22.5,30.20,SW,225,4.0,8.0,18,0.00,,SKC,0.00,VWS V15.00,2014-01-19 20:00:00,
2014-01-19 14:30:00,68.4,25.8,30.19,WSW,239,5.0,7.0,20,0.00,,SKC,0.00,VWS V15.00,2014-01-19 20:30:00,
2014-01-19 15:00:00,68.9,23.7,30.18,South,175,4.0,10.0,18,0.00,,SKC,0.00,VWS V15.00,2014-01-19 21:00:00,
2014-01-19 15:30:00,69.4,19.8,30.17,WSW,256,6.0,8.0,15,0.00,,SKC,0.00,VWS V15.00,2014-01-19 21:30:00,
2014-01-19 16:00:00,70.1,21.9,30.16,SSE,165,6.0,9.0,16,0.00,,SKC,0.00,VWS V15.00,2014-01-19 22:00:00,
2014-01-19 16:30:00,69.9,23.1,30.15,WSW,252,2.0,8.0,17,0.00,,SKC,0.00,VWS V15.00,2014-01-19 22:30:00,
2014-01-19 17:00:00,69.8,25.7,30.15,South,173,1.0,6.0,19,0.00,,SKC,0.00,VWS V15.00,2014-01-19 23:00:00,
2014-01-19 17:30:00,67.6,25.1,30.14,SE,124,1.0,4.0,20,0.00,,SKC,0.00,VWS V15.00,2014-01-19 23:30:00,
2014-01-19 18:00:00,63.8,25.3,30.13,SE,126,0.0,1.0,23,0.00,,SKC,0.00,VWS V15.00,2014-01-20 00:00:00,
2014-01-19 18:30:00,61.1,25.0,30.13,SE,134,1.0,2.0,25,0.00,,SKC,0.00,VWS V15.00,2014-01-20 00:30:00,
2014-01-19 19:00:00,58.3,26.2,30.13,ESE,117,1.0,4.0,29,0.00,,SKC,0.00,VWS V15.00,2014-01-20 01:00:00,
2014-01-19 19:30:00,57.1,26.0,30.13,ESE,112,0.0,3.0,30,0.00,,SKC,0.00,VWS V15.00,2014-01-20 01:30:00,
2014-01-19 20:00:00,56.1,25.9,30.13,SE,127,1.0,2.0,31,0.00,,SKC,0.00,VWS V15.00,2014-01-20 02:00:00,
2014-01-19 20:30:00,56.1,27.4,30.12,ESE,117,3.0,6.0,33,0.00,,SKC,0.00,VWS V15.00,2014-01-20 02:30:00,
2014-01-19 21:00:00,54.5,27.4,30.11,East,96,1.0,5.0,35,0.00,,SKC,0.00,VWS V15.00,2014-01-20 03:00:00,
2014-01-19 21:30:00,53.8,28.2,30.12,ESE,122,2.0,2.0,37,0.00,,SKC,0.00,VWS V15.00,2014-01-20 03:30:00,
2014-01-19 22:00:00,54.0,29.0,30.11,SSE,150,1.0,4.0,38,0.00,,SKC,0.00,VWS V15.00,2014-01-20 04:00:00,
2014-01-19 22:30:00,54.4,29.3,30.11,SSE,149,2.0,4.0,38,0.00,,SKC,0.00,VWS V15.00,2014-01-20 04:30:00,
2014-01-19 23:00:00,53.4,29.1,30.10,SSW,207,0.0,4.0,39,0.00,,SKC,0.00,VWS V15.00,2014-01-20 05:00:00,
2014-01-19 23:30:00,50.7,30.1,30.09,SW,229,2.0,4.0,45,0.00,,SKC,0.00,VWS V15.00,2014-01-20 05:30:00,